createdAt,value
2019-04-03T11:29:09.886Z,1.40
2019-04-03T11:31:42.491Z,1.60
2019-04-03T11:34:11.656Z,1.55
2019-04-03T11:36:43.037Z,1.30
2019-04-03T11:39:15.592Z,1.00
2019-04-03T11:41:43.742Z,1.05
2019-04-03T11:44:13.878Z,1.10
2019-04-03T11:46:43.527Z,1.30
2019-04-03T11:49:13.027Z,1.40
2019-04-03T11:51:43.280Z,1.40
2019-04-03T11:54:12.855Z,1.37
2019-04-03T11:56:44.912Z,1.70
2019-04-03T11:59:13.915Z,1.60
2019-04-03T12:01:43.482Z,1.67
2019-04-03T12:04:13.914Z,1.47
2019-04-03T12:06:43.497Z,1.72
2019-04-03T12:09:13.371Z,1.77
2019-04-03T12:11:43.691Z,1.82
2019-04-03T12:14:13.285Z,1.55
2019-04-03T12:16:44.483Z,1.80
2019-04-03T12:19:14.394Z,1.67
2019-04-03T12:21:43.874Z,2.10
2019-04-03T12:24:13.830Z,1.80
2019-04-03T12:26:44.134Z,2.00
2019-04-03T12:29:14.533Z,2.60
2019-04-03T12:31:44.187Z,2.58
2019-04-03T12:34:14.074Z,2.33
2019-04-03T12:36:46.160Z,2.40
2019-04-03T12:39:26.930Z,2.67
2019-04-03T12:41:57.284Z,3.00
2019-04-03T12:44:27.624Z,3.83
2019-04-03T12:46:57.340Z,2.47
2019-04-03T12:49:26.952Z,2.40
2019-04-03T12:51:56.789Z,1.95
2019-04-03T12:54:26.682Z,2.17
2019-04-03T12:56:56.247Z,2.15
2019-04-03T12:59:26.282Z,1.87
2019-04-03T13:01:56.103Z,1.65
2019-04-03T13:04:28.235Z,2.00
2019-04-03T13:06:57.149Z,1.40
2019-04-03T13:09:27.072Z,1.35
2019-04-03T13:11:57.466Z,1.90
2019-04-03T13:14:28.233Z,1.52
2019-04-03T13:16:58.944Z,1.82
2019-04-03T13:19:28.869Z,1.82
2019-04-03T13:21:58.615Z,1.92
2019-04-03T13:24:28.511Z,1.65
2019-04-03T13:26:59.322Z,1.75
2019-04-03T13:29:29.684Z,1.47
2019-04-03T13:31:59.643Z,1.45
2019-04-03T13:34:31.188Z,2.25
2019-04-03T13:37:00.944Z,2.05
2019-04-03T13:39:33.112Z,2.02
2019-04-03T13:42:02.005Z,1.72
2019-04-03T13:44:31.909Z,2.15
2019-04-03T13:47:01.471Z,2.45
2019-04-03T13:49:31.461Z,1.98
2019-04-03T13:52:05.490Z,2.17
2019-04-03T13:54:33.722Z,2.30
2019-04-03T13:57:03.492Z,1.70
2019-04-03T13:59:33.780Z,1.98
2019-04-03T14:02:04.224Z,1.70
2019-04-03T14:04:34.110Z,1.65
2019-04-03T14:07:03.942Z,2.20
2019-04-03T14:09:34.334Z,1.57
2019-04-03T14:12:05.727Z,1.62
2019-04-03T14:14:36.067Z,1.98
2019-04-03T14:17:06.619Z,1.72
2019-04-03T14:19:43.305Z,1.90
2019-04-03T14:22:08.125Z,2.40
2019-04-03T14:24:44.223Z,1.90
2019-04-03T14:27:20.781Z,1.85
2019-04-03T14:29:40.880Z,1.35
2019-04-03T14:32:13.897Z,1.50
2019-04-03T14:34:43.063Z,1.60
2019-04-03T14:37:12.763Z,2.33
2019-04-03T14:39:42.581Z,1.80
2019-04-03T14:42:12.209Z,1.60
2019-04-03T14:44:44.187Z,1.22
2019-04-03T14:47:13.251Z,1.55
2019-04-03T14:49:43.177Z,1.40
2019-04-03T14:52:13.265Z,1.62
2019-04-03T14:54:43.695Z,1.40
2019-04-03T14:57:20.782Z,1.20
2019-04-03T14:59:45.274Z,1.50
2019-04-03T15:02:15.115Z,1.60
2019-04-03T15:04:45.400Z,1.98
2019-04-03T15:07:15.776Z,2.17
2019-04-03T15:09:46.676Z,2.20
2019-04-03T15:12:16.841Z,1.67
2019-04-03T15:14:47.061Z,1.70
2019-04-03T15:17:16.841Z,2.02
2019-04-03T15:19:47.458Z,1.30
2019-04-03T15:22:17.334Z,1.32
2019-04-03T15:24:47.135Z,1.77
2019-04-03T15:27:16.921Z,2.72
2019-04-03T15:29:46.559Z,2.33
2019-04-03T15:32:18.630Z,6.78
2019-04-03T15:34:50.567Z,16.93
2019-04-03T15:37:19.779Z,4.80
2019-04-03T15:39:56.943Z,4.67
2019-04-03T15:42:20.967Z,2.52
2019-04-03T15:44:52.144Z,4.92
2019-04-03T15:47:33.901Z,2.30
2019-04-03T15:49:54.332Z,3.02
2019-04-03T15:52:24.711Z,3.67
2019-04-03T15:54:54.532Z,2.92
2019-04-03T15:57:24.405Z,3.00
2019-04-03T15:59:54.628Z,4.30
2019-04-03T16:02:24.757Z,4.75
2019-04-03T16:04:55.053Z,2.95
2019-04-03T16:07:25.280Z,3.15
2019-04-03T16:09:55.077Z,3.40
2019-04-03T16:12:24.979Z,3.33
2019-04-03T16:14:54.595Z,2.77
2019-04-03T16:17:24.812Z,2.87
2019-04-03T16:19:55.217Z,3.08
2019-04-03T16:22:27.120Z,3.52
2019-04-03T16:24:57.697Z,2.60
2019-04-03T16:27:29.237Z,3.37
2019-04-03T16:29:58.520Z,3.95
2019-04-03T16:32:28.612Z,2.58
2019-04-03T16:34:58.313Z,3.77
2019-04-03T16:37:28.083Z,4.00
2019-04-03T16:39:57.775Z,2.90
2019-04-03T16:42:27.725Z,2.92
2019-04-03T16:44:58.373Z,2.52
2019-04-03T16:47:28.224Z,3.02
2019-04-03T16:49:58.653Z,2.80
2019-04-03T16:52:30.284Z,3.90
2019-04-03T16:54:59.588Z,3.45
2019-04-03T16:57:29.766Z,4.75
2019-04-03T16:59:59.906Z,5.08
2019-04-03T17:02:30.077Z,5.97
2019-04-03T17:04:59.743Z,6.47
2019-04-03T17:07:29.453Z,5.30
2019-04-03T17:09:59.506Z,4.42
2019-04-03T17:12:29.294Z,4.90
2019-04-03T17:14:59.338Z,5.20
2019-04-03T17:17:29.786Z,4.33
2019-04-03T17:19:59.881Z,6.00
2019-04-03T17:22:30.090Z,6.60
2019-04-03T17:25:00.131Z,5.28
2019-04-03T17:27:30.772Z,4.65
2019-04-03T17:30:01.440Z,5.33
2019-04-03T17:32:31.727Z,4.55
2019-04-03T17:35:01.489Z,8.90
2019-04-03T17:37:31.845Z,4.60
2019-04-03T17:40:01.760Z,4.03
2019-04-03T17:42:31.463Z,4.83
2019-04-03T17:45:01.658Z,4.12
2019-04-03T17:47:31.521Z,4.00
2019-04-03T17:50:01.608Z,5.47
2019-04-03T17:52:31.405Z,5.25
2019-04-03T17:55:01.557Z,4.97
2019-04-03T17:57:31.503Z,4.47
2019-04-03T18:00:01.458Z,5.47
2019-04-03T18:02:31.256Z,5.28
2019-04-03T18:05:01.396Z,4.65
2019-04-03T18:07:31.385Z,5.58
2019-04-03T18:10:01.115Z,6.25
2019-04-03T18:12:31.035Z,5.25
2019-04-03T18:15:02.153Z,5.53
2019-04-03T18:17:32.232Z,5.00
2019-04-03T18:20:02.664Z,5.53
2019-04-03T18:22:32.337Z,6.10
2019-04-03T18:25:01.917Z,4.58
2019-04-03T18:27:33.439Z,4.25
2019-04-03T18:30:03.514Z,5.42
2019-04-03T18:32:33.095Z,4.45
2019-04-03T18:35:02.782Z,5.97
2019-04-03T18:37:34.449Z,6.62
2019-04-03T18:40:04.600Z,6.85
2019-04-03T18:42:34.441Z,7.67
2019-04-03T18:45:04.337Z,6.03
2019-04-03T18:47:41.263Z,6.40
2019-04-03T18:50:06.062Z,6.75
2019-04-03T18:52:38.445Z,6.97
2019-04-03T18:55:07.089Z,6.78
2019-04-03T18:57:36.613Z,6.92
2019-04-03T19:00:06.432Z,7.55
2019-04-03T19:02:36.552Z,6.85
2019-04-03T19:05:09.015Z,5.80
2019-04-03T19:07:38.215Z,6.75
2019-04-03T19:10:08.122Z,5.35
2019-04-03T19:12:37.946Z,5.17
2019-04-03T19:15:10.601Z,5.08
2019-04-03T19:17:40.570Z,6.28
2019-04-03T19:20:11.263Z,6.87
2019-04-03T19:22:41.361Z,6.15
2019-04-03T19:25:11.313Z,6.87
2019-04-03T19:27:40.794Z,7.15
2019-04-03T19:30:10.546Z,5.10
2019-04-03T19:32:42.689Z,6.42
2019-04-03T19:35:11.852Z,5.87
2019-04-03T19:37:44.712Z,6.83
2019-04-03T19:40:13.329Z,4.80
2019-04-03T19:42:43.893Z,6.37
2019-04-03T19:45:14.501Z,6.55
2019-04-03T19:47:44.308Z,5.80
2019-04-03T19:50:14.039Z,5.37
2019-04-03T19:52:43.752Z,5.70
2019-04-03T19:55:13.498Z,6.90
2019-04-03T19:57:43.353Z,6.83
2019-04-03T20:00:13.252Z,6.17
2019-04-03T20:02:43.694Z,5.95
2019-04-03T20:05:13.537Z,6.00
2019-04-03T20:07:43.444Z,7.00
2019-04-03T20:10:13.087Z,6.65
2019-04-03T20:12:42.689Z,6.17
2019-04-03T20:15:12.489Z,6.08
2019-04-03T20:17:41.932Z,6.80
2019-04-03T20:20:11.900Z,7.45
2019-04-03T20:22:42.607Z,10.75
2019-04-03T20:25:14.495Z,7.20
2019-04-03T20:27:47.034Z,5.65
2019-04-03T20:30:15.001Z,4.78
2019-04-03T20:32:44.733Z,4.95
2019-04-03T20:35:14.400Z,5.83
2019-04-03T20:37:44.187Z,6.47
2019-04-03T20:40:13.892Z,6.83
2019-04-03T20:42:43.610Z,9.48
2019-04-03T20:45:13.505Z,7.90
2019-04-03T20:47:43.444Z,7.75
2019-04-03T20:50:15.976Z,7.70
2019-04-03T20:52:46.224Z,7.78
2019-04-03T20:55:16.314Z,8.50
2019-04-03T20:57:55.352Z,9.23
2019-04-03T21:00:18.419Z,9.03
2019-04-03T21:02:48.536Z,8.80
2019-04-03T21:05:18.898Z,8.35
2019-04-03T21:07:48.746Z,8.95
2019-04-03T21:10:18.528Z,8.68
2019-04-03T21:12:48.657Z,9.48
2019-04-03T21:15:18.422Z,10.03
2019-04-03T21:17:49.784Z,10.35
2019-04-03T21:20:19.922Z,10.35
2019-04-03T21:22:49.929Z,10.23
2019-04-03T21:25:19.994Z,11.05
2019-04-03T21:27:49.733Z,11.25
2019-04-03T21:30:19.493Z,6.85
2019-04-03T21:32:49.154Z,7.70
2019-04-03T21:35:19.124Z,7.00
2019-04-03T21:37:48.884Z,5.30
2019-04-03T21:40:18.365Z,4.37
2019-04-03T21:42:48.091Z,3.67
2019-04-03T21:45:17.618Z,4.28
2019-04-03T21:47:47.655Z,4.83
2019-04-03T21:50:19.239Z,5.45
2019-04-03T21:52:48.893Z,4.47
2019-04-03T21:55:18.883Z,3.33
2019-04-03T21:57:48.753Z,2.75
2019-04-03T22:00:36.712Z,2.00
2019-04-03T22:03:06.954Z,2.60
2019-04-03T22:05:36.823Z,2.27
2019-04-03T22:08:06.771Z,2.37
2019-04-03T22:10:36.458Z,2.67
2019-04-03T22:13:07.723Z,2.45
2019-04-03T22:15:38.094Z,2.55
2019-04-03T22:18:07.838Z,2.25
2019-04-03T22:20:37.513Z,2.12
2019-04-03T22:23:07.216Z,2.22
2019-04-03T22:25:39.302Z,2.80
2019-04-03T22:28:08.581Z,3.45
2019-04-03T22:30:38.153Z,2.90
2019-04-03T22:33:07.789Z,2.85
2019-04-03T22:35:37.433Z,2.10
2019-04-03T22:38:07.346Z,1.72
2019-04-03T22:40:36.991Z,2.40
2019-04-03T22:43:07.153Z,2.10
2019-04-03T22:45:36.998Z,2.70
2019-04-03T22:48:06.783Z,2.37
2019-04-03T22:50:36.639Z,2.20
2019-04-03T22:53:06.388Z,2.27
2019-04-03T22:55:36.574Z,2.52
2019-04-03T22:58:06.392Z,2.17
2019-04-03T23:00:36.173Z,3.33
2019-04-03T23:03:05.617Z,2.90
2019-04-03T23:05:35.955Z,2.17
2019-04-03T23:08:05.669Z,3.30
2019-04-03T23:10:36.075Z,1.70
2019-04-03T23:13:05.703Z,1.80
2019-04-03T23:15:35.516Z,1.87
2019-04-03T23:18:05.080Z,1.50
2019-04-03T23:20:35.158Z,1.70
2019-04-03T23:23:04.750Z,1.70
2019-04-03T23:25:34.477Z,1.50
2019-04-03T23:28:04.107Z,2.05
2019-04-03T23:30:33.862Z,1.67
2019-04-03T23:33:03.966Z,1.32
2019-04-03T23:35:33.881Z,1.32
2019-04-03T23:38:03.738Z,1.50
2019-04-03T23:40:34.629Z,1.55
2019-04-03T23:43:04.808Z,1.70
2019-04-03T23:45:34.596Z,1.32
2019-04-03T23:48:04.368Z,1.45
2019-04-03T23:50:33.869Z,1.55
2019-04-03T23:53:03.729Z,1.75
2019-04-03T23:55:34.349Z,1.60
2019-04-03T23:58:04.958Z,1.60
